sensor_id;sensor_type;location;lat;lon;timestamp;P1;durP1;ratioP1;P2;durP2;ratioP2
19760;SDS011;10039;42.632;23.408;2022-07-19T00:00:30;0.13;;;0.13;;
19760;SDS011;10039;42.632;23.408;2022-07-19T00:02:56;0.10;;;0.10;;
19760;SDS011;10039;42.632;23.408;2022-07-19T00:05:21;0.10;;;0.10;;
19760;SDS011;10039;42.632;23.408;2022-07-19T00:07:47;0.10;;;0.10;;
19760;SDS011;10039;42.632;23.408;2022-07-19T00:10:13;0.10;;;0.10;;
19760;SDS011;10039;42.632;23.408;2022-07-19T00:12:40;0.10;;;0.10;;
19760;SDS011;10039;42.632;23.408;2022-07-19T00:15:07;0.20;;;0.20;;
19760;SDS011;10039;42.632;23.408;2022-07-19T00:17:39;0.10;;;0.10;;
19760;SDS011;10039;42.632;23.408;2022-07-19T00:20:06;0.00;;;0.00;;
19760;SDS011;10039;42.632;23.408;2022-07-19T00:22:33;0.10;;;0.10;;
19760;SDS011;10039;42.632;23.408;2022-07-19T00:24:58;0.10;;;0.10;;
19760;SDS011;10039;42.632;23.408;2022-07-19T00:27:23;0.10;;;0.10;;
19760;SDS011;10039;42.632;23.408;2022-07-19T00:29:49;0.10;;;0.10;;
19760;SDS011;10039;42.632;23.408;2022-07-19T00:32:14;0.10;;;0.10;;
19760;SDS011;10039;42.632;23.408;2022-07-19T00:34:40;0.20;;;0.20;;
19760;SDS011;10039;42.632;23.408;2022-07-19T00:37:05;0.10;;;0.10;;
19760;SDS011;10039;42.632;23.408;2022-07-19T00:39:31;0.10;;;0.10;;
19760;SDS011;10039;42.632;23.408;2022-07-19T00:41:56;0.10;;;0.10;;
19760;SDS011;10039;42.632;23.408;2022-07-19T00:44:22;0.10;;;0.10;;
19760;SDS011;10039;42.632;23.408;2022-07-19T00:46:48;0.10;;;0.10;;
19760;SDS011;10039;42.632;23.408;2022-07-19T00:49:14;0.10;;;0.10;;
19760;SDS011;10039;42.632;23.408;2022-07-19T00:51:39;0.10;;;0.10;;
19760;SDS011;10039;42.632;23.408;2022-07-19T00:54:08;0.10;;;0.10;;
19760;SDS011;10039;42.632;23.408;2022-07-19T00:56:36;0.10;;;0.10;;
19760;SDS011;10039;42.632;23.408;2022-07-19T00:59:03;0.10;;;0.10;;
19760;SDS011;10039;42.632;23.408;2022-07-19T01:01:29;0.10;;;0.10;;
19760;SDS011;10039;42.632;23.408;2022-07-19T01:03:55;0.10;;;0.10;;
19760;SDS011;10039;42.632;23.408;2022-07-19T01:06:21;0.10;;;0.10;;
19760;SDS011;10039;42.632;23.408;2022-07-19T01:08:47;0.13;;;0.13;;
19760;SDS011;10039;42.632;23.408;2022-07-19T01:11:13;0.10;;;0.10;;
19760;SDS011;10039;42.632;23.408;2022-07-19T01:13:38;0.10;;;0.10;;
19760;SDS011;10039;42.632;23.408;2022-07-19T01:16:04;0.13;;;0.13;;
19760;SDS011;10039;42.632;23.408;2022-07-19T01:18:30;0.10;;;0.10;;
19760;SDS011;10039;42.632;23.408;2022-07-19T01:20:56;0.10;;;0.10;;
19760;SDS011;10039;42.632;23.408;2022-07-19T01:23:22;0.10;;;0.10;;
19760;SDS011;10039;42.632;23.408;2022-07-19T01:25:48;0.10;;;0.10;;
19760;SDS011;10039;42.632;23.408;2022-07-19T01:28:13;0.10;;;0.10;;
19760;SDS011;10039;42.632;23.408;2022-07-19T01:30:39;0.10;;;0.10;;
19760;SDS011;10039;42.632;23.408;2022-07-19T01:33:04;0.10;;;0.10;;
19760;SDS011;10039;42.632;23.408;2022-07-19T01:35:30;0.10;;;0.10;;
19760;SDS011;10039;42.632;23.408;2022-07-19T01:37:56;0.10;;;0.10;;
19760;SDS011;10039;42.632;23.408;2022-07-19T01:40:21;0.10;;;0.10;;
19760;SDS011;10039;42.632;23.408;2022-07-19T01:42:48;0.10;;;0.10;;
19760;SDS011;10039;42.632;23.408;2022-07-19T01:45:14;0.10;;;0.10;;
19760;SDS011;10039;42.632;23.408;2022-07-19T01:47:41;0.10;;;0.10;;
19760;SDS011;10039;42.632;23.408;2022-07-19T01:50:07;0.10;;;0.10;;
19760;SDS011;10039;42.632;23.408;2022-07-19T01:52:33;0.10;;;0.10;;
19760;SDS011;10039;42.632;23.408;2022-07-19T01:54:59;0.10;;;0.10;;
19760;SDS011;10039;42.632;23.408;2022-07-19T01:57:24;0.10;;;0.10;;
19760;SDS011;10039;42.632;23.408;2022-07-19T01:59:50;0.10;;;0.10;;
19760;SDS011;10039;42.632;23.408;2022-07-19T02:02:16;0.20;;;0.20;;
19760;SDS011;10039;42.632;23.408;2022-07-19T02:04:41;0.10;;;0.10;;
19760;SDS011;10039;42.632;23.408;2022-07-19T02:07:07;0.00;;;0.00;;
19760;SDS011;10039;42.632;23.408;2022-07-19T02:09:32;0.10;;;0.10;;
19760;SDS011;10039;42.632;23.408;2022-07-19T02:11:58;0.10;;;0.10;;
19760;SDS011;10039;42.632;23.408;2022-07-19T02:14:23;0.10;;;0.10;;
19760;SDS011;10039;42.632;23.408;2022-07-19T02:16:49;0.10;;;0.10;;
19760;SDS011;10039;42.632;23.408;2022-07-19T02:19:14;0.10;;;0.10;;
19760;SDS011;10039;42.632;23.408;2022-07-19T02:21:40;0.10;;;0.10;;
19760;SDS011;10039;42.632;23.408;2022-07-19T02:24:06;0.10;;;0.10;;
19760;SDS011;10039;42.632;23.408;2022-07-19T02:26:33;0.20;;;0.20;;
19760;SDS011;10039;42.632;23.408;2022-07-19T02:28:59;0.10;;;0.10;;
19760;SDS011;10039;42.632;23.408;2022-07-19T02:31:24;0.10;;;0.10;;
19760;SDS011;10039;42.632;23.408;2022-07-19T02:33:50;0.10;;;0.10;;
19760;SDS011;10039;42.632;23.408;2022-07-19T02:36:15;0.10;;;0.10;;
19760;SDS011;10039;42.632;23.408;2022-07-19T02:38:42;0.10;;;0.10;;
19760;SDS011;10039;42.632;23.408;2022-07-19T02:41:08;0.10;;;0.10;;
19760;SDS011;10039;42.632;23.408;2022-07-19T02:43:33;0.10;;;0.10;;
19760;SDS011;10039;42.632;23.408;2022-07-19T02:45:59;0.10;;;0.10;;
19760;SDS011;10039;42.632;23.408;2022-07-19T02:48:24;0.20;;;0.20;;
19760;SDS011;10039;42.632;23.408;2022-07-19T02:50:49;0.10;;;0.10;;
19760;SDS011;10039;42.632;23.408;2022-07-19T02:53:15;0.20;;;0.20;;
19760;SDS011;10039;42.632;23.408;2022-07-19T02:55:40;0.10;;;0.10;;
19760;SDS011;10039;42.632;23.408;2022-07-19T02:58:06;0.10;;;0.10;;
19760;SDS011;10039;42.632;23.408;2022-07-19T03:00:32;0.20;;;0.20;;
19760;SDS011;10039;42.632;23.408;2022-07-19T03:02:57;0.10;;;0.10;;
19760;SDS011;10039;42.632;23.408;2022-07-19T03:05:44;0.10;;;0.10;;
19760;SDS011;10039;42.632;23.408;2022-07-19T03:08:10;0.20;;;0.20;;
19760;SDS011;10039;42.632;23.408;2022-07-19T03:10:35;0.10;;;0.10;;
19760;SDS011;10039;42.632;23.408;2022-07-19T03:13:00;0.10;;;0.10;;
19760;SDS011;10039;42.632;23.408;2022-07-19T03:15:26;0.10;;;0.10;;
19760;SDS011;10039;42.632;23.408;2022-07-19T03:17:51;0.10;;;0.10;;
19760;SDS011;10039;42.632;23.408;2022-07-19T03:20:17;0.10;;;0.10;;
19760;SDS011;10039;42.632;23.408;2022-07-19T03:22:42;0.10;;;0.10;;
19760;SDS011;10039;42.632;23.408;2022-07-19T03:25:08;0.10;;;0.10;;
19760;SDS011;10039;42.632;23.408;2022-07-19T03:27:34;0.13;;;0.13;;
19760;SDS011;10039;42.632;23.408;2022-07-19T03:30:00;0.10;;;0.10;;
19760;SDS011;10039;42.632;23.408;2022-07-19T03:32:26;0.17;;;0.17;;
19760;SDS011;10039;42.632;23.408;2022-07-19T03:34:51;0.10;;;0.10;;
19760;SDS011;10039;42.632;23.408;2022-07-19T03:37:17;0.10;;;0.10;;
19760;SDS011;10039;42.632;23.408;2022-07-19T03:39:42;0.20;;;0.20;;
19760;SDS011;10039;42.632;23.408;2022-07-19T03:42:08;0.10;;;0.10;;
19760;SDS011;10039;42.632;23.408;2022-07-19T03:44:33;0.10;;;0.10;;
19760;SDS011;10039;42.632;23.408;2022-07-19T03:47:01;0.10;;;0.10;;
19760;SDS011;10039;42.632;23.408;2022-07-19T03:49:27;0.10;;;0.10;;
19760;SDS011;10039;42.632;23.408;2022-07-19T03:51:52;0.10;;;0.10;;
19760;SDS011;10039;42.632;23.408;2022-07-19T03:54:18;0.10;;;0.10;;
19760;SDS011;10039;42.632;23.408;2022-07-19T03:56:44;0.10;;;0.10;;
19760;SDS011;10039;42.632;23.408;2022-07-19T03:59:09;0.10;;;0.10;;
19760;SDS011;10039;42.632;23.408;2022-07-19T04:01:35;0.10;;;0.10;;
19760;SDS011;10039;42.632;23.408;2022-07-19T04:04:02;0.10;;;0.10;;
19760;SDS011;10039;42.632;23.408;2022-07-19T04:06:29;0.10;;;0.10;;
19760;SDS011;10039;42.632;23.408;2022-07-19T04:08:54;0.10;;;0.10;;
19760;SDS011;10039;42.632;23.408;2022-07-19T04:11:20;0.10;;;0.10;;
19760;SDS011;10039;42.632;23.408;2022-07-19T04:13:45;0.10;;;0.10;;
19760;SDS011;10039;42.632;23.408;2022-07-19T04:16:11;0.10;;;0.10;;
19760;SDS011;10039;42.632;23.408;2022-07-19T04:18:36;0.10;;;0.10;;
19760;SDS011;10039;42.632;23.408;2022-07-19T04:21:04;0.10;;;0.10;;
19760;SDS011;10039;42.632;23.408;2022-07-19T04:23:30;0.17;;;0.17;;
19760;SDS011;10039;42.632;23.408;2022-07-19T04:25:55;0.10;;;0.10;;
19760;SDS011;10039;42.632;23.408;2022-07-19T04:28:21;0.10;;;0.10;;
19760;SDS011;10039;42.632;23.408;2022-07-19T04:30:46;0.13;;;0.13;;
19760;SDS011;10039;42.632;23.408;2022-07-19T04:33:13;0.13;;;0.13;;
19760;SDS011;10039;42.632;23.408;2022-07-19T04:35:39;0.10;;;0.10;;
19760;SDS011;10039;42.632;23.408;2022-07-19T04:38:05;0.10;;;0.10;;
19760;SDS011;10039;42.632;23.408;2022-07-19T04:40:33;0.15;;;0.15;;
19760;SDS011;10039;42.632;23.408;2022-07-19T04:42:59;0.10;;;0.10;;
19760;SDS011;10039;42.632;23.408;2022-07-19T04:45:24;0.10;;;0.10;;
19760;SDS011;10039;42.632;23.408;2022-07-19T04:47:50;0.10;;;0.10;;
19760;SDS011;10039;42.632;23.408;2022-07-19T04:50:15;0.10;;;0.10;;
19760;SDS011;10039;42.632;23.408;2022-07-19T04:52:41;0.10;;;0.10;;
19760;SDS011;10039;42.632;23.408;2022-07-19T04:55:07;0.20;;;0.20;;
19760;SDS011;10039;42.632;23.408;2022-07-19T04:57:33;0.10;;;0.10;;
19760;SDS011;10039;42.632;23.408;2022-07-19T04:59:58;0.10;;;0.10;;
19760;SDS011;10039;42.632;23.408;2022-07-19T05:02:24;0.10;;;0.10;;
19760;SDS011;10039;42.632;23.408;2022-07-19T05:04:49;0.10;;;0.10;;
19760;SDS011;10039;42.632;23.408;2022-07-19T05:07:15;0.10;;;0.10;;
19760;SDS011;10039;42.632;23.408;2022-07-19T05:09:40;0.10;;;0.10;;
19760;SDS011;10039;42.632;23.408;2022-07-19T05:12:06;0.10;;;0.10;;
19760;SDS011;10039;42.632;23.408;2022-07-19T05:14:33;0.10;;;0.10;;
19760;SDS011;10039;42.632;23.408;2022-07-19T05:16:59;0.10;;;0.10;;
19760;SDS011;10039;42.632;23.408;2022-07-19T05:19:25;0.10;;;0.10;;
19760;SDS011;10039;42.632;23.408;2022-07-19T05:21:50;0.10;;;0.10;;
19760;SDS011;10039;42.632;23.408;2022-07-19T05:24:16;0.10;;;0.10;;
19760;SDS011;10039;42.632;23.408;2022-07-19T05:26:44;0.10;;;0.10;;
19760;SDS011;10039;42.632;23.408;2022-07-19T05:29:10;0.10;;;0.10;;
19760;SDS011;10039;42.632;23.408;2022-07-19T05:31:36;0.10;;;0.10;;
19760;SDS011;10039;42.632;23.408;2022-07-19T05:34:02;0.10;;;0.10;;
19760;SDS011;10039;42.632;23.408;2022-07-19T05:36:28;0.10;;;0.10;;
19760;SDS011;10039;42.632;23.408;2022-07-19T05:38:54;0.08;;;0.08;;
19760;SDS011;10039;42.632;23.408;2022-07-19T05:41:20;0.10;;;0.10;;
19760;SDS011;10039;42.632;23.408;2022-07-19T05:43:47;0.10;;;0.10;;
19760;SDS011;10039;42.632;23.408;2022-07-19T05:46:14;0.03;;;0.03;;
19760;SDS011;10039;42.632;23.408;2022-07-19T05:48:44;0.10;;;0.10;;
19760;SDS011;10039;42.632;23.408;2022-07-19T05:51:12;0.10;;;0.10;;
19760;SDS011;10039;42.632;23.408;2022-07-19T05:53:38;0.10;;;0.10;;
19760;SDS011;10039;42.632;23.408;2022-07-19T05:56:04;0.10;;;0.10;;
19760;SDS011;10039;42.632;23.408;2022-07-19T05:58:31;0.10;;;0.10;;
19760;SDS011;10039;42.632;23.408;2022-07-19T06:00:56;0.10;;;0.10;;
19760;SDS011;10039;42.632;23.408;2022-07-19T06:03:41;0.10;;;0.10;;
19760;SDS011;10039;42.632;23.408;2022-07-19T06:06:06;0.10;;;0.10;;
19760;SDS011;10039;42.632;23.408;2022-07-19T06:08:32;0.10;;;0.10;;
19760;SDS011;10039;42.632;23.408;2022-07-19T06:10:58;0.10;;;0.10;;
19760;SDS011;10039;42.632;23.408;2022-07-19T06:13:23;0.10;;;0.10;;
19760;SDS011;10039;42.632;23.408;2022-07-19T06:15:49;0.10;;;0.10;;
19760;SDS011;10039;42.632;23.408;2022-07-19T06:18:17;0.10;;;0.10;;
19760;SDS011;10039;42.632;23.408;2022-07-19T06:20:43;0.05;;;0.05;;
19760;SDS011;10039;42.632;23.408;2022-07-19T06:23:09;0.00;;;0.00;;
19760;SDS011;10039;42.632;23.408;2022-07-19T06:25:34;0.10;;;0.10;;
19760;SDS011;10039;42.632;23.408;2022-07-19T06:28:00;0.10;;;0.10;;
19760;SDS011;10039;42.632;23.408;2022-07-19T06:30:26;0.10;;;0.10;;
19760;SDS011;10039;42.632;23.408;2022-07-19T06:32:51;0.00;;;0.00;;
19760;SDS011;10039;42.632;23.408;2022-07-19T06:35:17;0.10;;;0.10;;
19760;SDS011;10039;42.632;23.408;2022-07-19T06:37:42;0.00;;;0.00;;
19760;SDS011;10039;42.632;23.408;2022-07-19T06:40:08;0.03;;;0.03;;
19760;SDS011;10039;42.632;23.408;2022-07-19T06:42:34;0.00;;;0.00;;
19760;SDS011;10039;42.632;23.408;2022-07-19T06:44:59;0.10;;;0.10;;
19760;SDS011;10039;42.632;23.408;2022-07-19T06:47:27;0.00;;;0.00;;
19760;SDS011;10039;42.632;23.408;2022-07-19T06:49:53;0.00;;;0.00;;
19760;SDS011;10039;42.632;23.408;2022-07-19T06:52:19;0.10;;;0.10;;
19760;SDS011;10039;42.632;23.408;2022-07-19T06:54:44;0.10;;;0.10;;
19760;SDS011;10039;42.632;23.408;2022-07-19T06:57:11;0.05;;;0.05;;
19760;SDS011;10039;42.632;23.408;2022-07-19T06:59:37;0.00;;;0.00;;
19760;SDS011;10039;42.632;23.408;2022-07-19T07:02:03;0.00;;;0.00;;
19760;SDS011;10039;42.632;23.408;2022-07-19T07:04:29;0.00;;;0.00;;
19760;SDS011;10039;42.632;23.408;2022-07-19T07:06:55;0.00;;;0.00;;
19760;SDS011;10039;42.632;23.408;2022-07-19T07:09:21;0.00;;;0.00;;
19760;SDS011;10039;42.632;23.408;2022-07-19T07:11:47;0.00;;;0.00;;
19760;SDS011;10039;42.632;23.408;2022-07-19T07:14:12;0.00;;;0.00;;
19760;SDS011;10039;42.632;23.408;2022-07-19T07:16:38;0.00;;;0.00;;
19760;SDS011;10039;42.632;23.408;2022-07-19T07:19:04;0.00;;;0.00;;
19760;SDS011;10039;42.632;23.408;2022-07-19T07:21:30;0.00;;;0.00;;
19760;SDS011;10039;42.632;23.408;2022-07-19T07:23:59;0.00;;;0.00;;
19760;SDS011;10039;42.632;23.408;2022-07-19T07:26:26;0.00;;;0.00;;
19760;SDS011;10039;42.632;23.408;2022-07-19T07:28:52;0.00;;;0.00;;
19760;SDS011;10039;42.632;23.408;2022-07-19T07:31:18;0.00;;;0.00;;
19760;SDS011;10039;42.632;23.408;2022-07-19T07:33:44;0.00;;;0.00;;
19760;SDS011;10039;42.632;23.408;2022-07-19T07:36:10;0.00;;;0.00;;
19760;SDS011;10039;42.632;23.408;2022-07-19T07:38:35;0.00;;;0.00;;
19760;SDS011;10039;42.632;23.408;2022-07-19T07:41:01;0.00;;;0.00;;
19760;SDS011;10039;42.632;23.408;2022-07-19T07:43:28;0.00;;;0.00;;
19760;SDS011;10039;42.632;23.408;2022-07-19T07:45:54;0.00;;;0.00;;
19760;SDS011;10039;42.632;23.408;2022-07-19T07:48:20;0.00;;;0.00;;
19760;SDS011;10039;42.632;23.408;2022-07-19T07:50:46;0.10;;;0.10;;
19760;SDS011;10039;42.632;23.408;2022-07-19T07:53:11;0.00;;;0.00;;
19760;SDS011;10039;42.632;23.408;2022-07-19T07:55:37;0.00;;;0.00;;
19760;SDS011;10039;42.632;23.408;2022-07-19T07:58:06;0.00;;;0.00;;
19760;SDS011;10039;42.632;23.408;2022-07-19T08:00:36;0.00;;;0.00;;
19760;SDS011;10039;42.632;23.408;2022-07-19T08:03:02;0.00;;;0.00;;
19760;SDS011;10039;42.632;23.408;2022-07-19T08:05:28;0.00;;;0.00;;
19760;SDS011;10039;42.632;23.408;2022-07-19T08:07:54;0.00;;;0.00;;
19760;SDS011;10039;42.632;23.408;2022-07-19T08:10:24;0.00;;;0.00;;
19760;SDS011;10039;42.632;23.408;2022-07-19T08:12:56;0.00;;;0.00;;
19760;SDS011;10039;42.632;23.408;2022-07-19T08:15:22;0.00;;;0.00;;
19760;SDS011;10039;42.632;23.408;2022-07-19T08:17:48;0.00;;;0.00;;
19760;SDS011;10039;42.632;23.408;2022-07-19T08:20:14;0.00;;;0.00;;
19760;SDS011;10039;42.632;23.408;2022-07-19T08:22:42;0.00;;;0.00;;
19760;SDS011;10039;42.632;23.408;2022-07-19T08:25:09;0.00;;;0.00;;
19760;SDS011;10039;42.632;23.408;2022-07-19T08:27:36;0.00;;;0.00;;
19760;SDS011;10039;42.632;23.408;2022-07-19T08:30:02;0.00;;;0.00;;
19760;SDS011;10039;42.632;23.408;2022-07-19T08:32:28;0.00;;;0.00;;
19760;SDS011;10039;42.632;23.408;2022-07-19T08:34:54;0.00;;;0.00;;
19760;SDS011;10039;42.632;23.408;2022-07-19T08:37:20;0.00;;;0.00;;
19760;SDS011;10039;42.632;23.408;2022-07-19T08:39:45;0.00;;;0.00;;
19760;SDS011;10039;42.632;23.408;2022-07-19T08:42:11;0.00;;;0.00;;
19760;SDS011;10039;42.632;23.408;2022-07-19T08:44:37;0.00;;;0.00;;
19760;SDS011;10039;42.632;23.408;2022-07-19T08:47:05;0.00;;;0.00;;
19760;SDS011;10039;42.632;23.408;2022-07-19T08:49:31;0.00;;;0.00;;
19760;SDS011;10039;42.632;23.408;2022-07-19T08:51:57;0.00;;;0.00;;
19760;SDS011;10039;42.632;23.408;2022-07-19T08:54:25;0.00;;;0.00;;
19760;SDS011;10039;42.632;23.408;2022-07-19T08:56:51;0.00;;;0.00;;
19760;SDS011;10039;42.632;23.408;2022-07-19T08:59:36;0.00;;;0.00;;
19760;SDS011;10039;42.632;23.408;2022-07-19T09:02:07;0.00;;;0.00;;
19760;SDS011;10039;42.632;23.408;2022-07-19T09:04:33;0.00;;;0.00;;
19760;SDS011;10039;42.632;23.408;2022-07-19T09:06:59;0.00;;;0.00;;
19760;SDS011;10039;42.632;23.408;2022-07-19T09:09:28;0.00;;;0.00;;
19760;SDS011;10039;42.632;23.408;2022-07-19T09:11:56;0.00;;;0.00;;
19760;SDS011;10039;42.632;23.408;2022-07-19T09:14:24;0.00;;;0.00;;
19760;SDS011;10039;42.632;23.408;2022-07-19T09:19:18;0.00;;;0.00;;
19760;SDS011;10039;42.632;23.408;2022-07-19T09:21:54;0.00;;;0.00;;
19760;SDS011;10039;42.632;23.408;2022-07-19T09:24:22;0.00;;;0.00;;
19760;SDS011;10039;42.632;23.408;2022-07-19T09:26:56;0.00;;;0.00;;
19760;SDS011;10039;42.632;23.408;2022-07-19T09:29:30;0.00;;;0.00;;
19760;SDS011;10039;42.632;23.408;2022-07-19T09:31:58;0.00;;;0.00;;
19760;SDS011;10039;42.632;23.408;2022-07-19T09:34:35;0.00;;;0.00;;
19760;SDS011;10039;42.632;23.408;2022-07-19T09:37:08;0.00;;;0.00;;
19760;SDS011;10039;42.632;23.408;2022-07-19T09:39:38;0.00;;;0.00;;
19760;SDS011;10039;42.632;23.408;2022-07-19T09:42:36;0.00;;;0.00;;
19760;SDS011;10039;42.632;23.408;2022-07-19T09:45:26;0.00;;;0.00;;
19760;SDS011;10039;42.632;23.408;2022-07-19T09:47:54;0.00;;;0.00;;
19760;SDS011;10039;42.632;23.408;2022-07-19T09:50:22;0.00;;;0.00;;
19760;SDS011;10039;42.632;23.408;2022-07-19T09:52:49;0.00;;;0.00;;
19760;SDS011;10039;42.632;23.408;2022-07-19T09:55:16;0.00;;;0.00;;
19760;SDS011;10039;42.632;23.408;2022-07-19T09:57:43;0.00;;;0.00;;
19760;SDS011;10039;42.632;23.408;2022-07-19T10:00:10;0.00;;;0.00;;
19760;SDS011;10039;42.632;23.408;2022-07-19T10:02:40;0.00;;;0.00;;
19760;SDS011;10039;42.632;23.408;2022-07-19T10:05:08;0.00;;;0.00;;
19760;SDS011;10039;42.632;23.408;2022-07-19T10:07:35;0.00;;;0.00;;
19760;SDS011;10039;42.632;23.408;2022-07-19T10:10:02;0.00;;;0.00;;
19760;SDS011;10039;42.632;23.408;2022-07-19T10:12:29;0.00;;;0.00;;
19760;SDS011;10039;42.632;23.408;2022-07-19T10:14:56;0.00;;;0.00;;
19760;SDS011;10039;42.632;23.408;2022-07-19T10:19:53;0.00;;;0.00;;
19760;SDS011;10039;42.632;23.408;2022-07-19T10:22:24;0.00;;;0.00;;
19760;SDS011;10039;42.632;23.408;2022-07-19T10:24:52;0.00;;;0.00;;
19760;SDS011;10039;42.632;23.408;2022-07-19T10:27:41;0.00;;;0.00;;
19760;SDS011;10039;42.632;23.408;2022-07-19T10:32:41;0.00;;;0.00;;
19760;SDS011;10039;42.632;23.408;2022-07-19T10:40:47;0.00;;;0.00;;
19760;SDS011;10039;42.632;23.408;2022-07-19T10:43:14;0.00;;;0.00;;
19760;SDS011;10039;42.632;23.408;2022-07-19T10:51:50;0.00;;;0.00;;
19760;SDS011;10039;42.632;23.408;2022-07-19T10:54:05;0.00;;;0.00;;
19760;SDS011;10039;42.632;23.408;2022-07-19T10:59:33;0.00;;;0.00;;
19760;SDS011;10039;42.632;23.408;2022-07-19T11:02:01;0.00;;;0.00;;
19760;SDS011;10039;42.632;23.408;2022-07-19T11:04:29;0.00;;;0.00;;
19760;SDS011;10039;42.632;23.408;2022-07-19T11:07:13;0.00;;;0.00;;
19760;SDS011;10039;42.632;23.408;2022-07-19T11:09:39;0.00;;;0.00;;
19760;SDS011;10039;42.632;23.408;2022-07-19T11:12:21;0.00;;;0.00;;
19760;SDS011;10039;42.632;23.408;2022-07-19T11:14:47;0.00;;;0.00;;
19760;SDS011;10039;42.632;23.408;2022-07-19T11:17:18;0.00;;;0.00;;
19760;SDS011;10039;42.632;23.408;2022-07-19T11:20:00;0.00;;;0.00;;
19760;SDS011;10039;42.632;23.408;2022-07-19T11:22:33;0.00;;;0.00;;
19760;SDS011;10039;42.632;23.408;2022-07-19T11:25:00;0.00;;;0.00;;
19760;SDS011;10039;42.632;23.408;2022-07-19T11:27:26;0.00;;;0.00;;
19760;SDS011;10039;42.632;23.408;2022-07-19T11:29:56;0.00;;;0.00;;
19760;SDS011;10039;42.632;23.408;2022-07-19T11:32:23;0.00;;;0.00;;
19760;SDS011;10039;42.632;23.408;2022-07-19T11:34:52;0.00;;;0.00;;
19760;SDS011;10039;42.632;23.408;2022-07-19T11:37:22;0.00;;;0.00;;
19760;SDS011;10039;42.632;23.408;2022-07-19T11:39:52;0.00;;;0.00;;
19760;SDS011;10039;42.632;23.408;2022-07-19T11:42:28;0.00;;;0.00;;
19760;SDS011;10039;42.632;23.408;2022-07-19T11:44:58;0.00;;;0.00;;
19760;SDS011;10039;42.632;23.408;2022-07-19T11:47:24;0.00;;;0.00;;
19760;SDS011;10039;42.632;23.408;2022-07-19T11:49:49;0.00;;;0.00;;
19760;SDS011;10039;42.632;23.408;2022-07-19T11:52:18;0.00;;;0.00;;
19760;SDS011;10039;42.632;23.408;2022-07-19T11:54:57;0.00;;;0.00;;
19760;SDS011;10039;42.632;23.408;2022-07-19T11:57:24;0.00;;;0.00;;
19760;SDS011;10039;42.632;23.408;2022-07-19T11:59:51;0.00;;;0.00;;
19760;SDS011;10039;42.632;23.408;2022-07-19T12:02:17;0.00;;;0.00;;
19760;SDS011;10039;42.632;23.408;2022-07-19T12:04:42;0.00;;;0.00;;
19760;SDS011;10039;42.632;23.408;2022-07-19T12:07:08;0.00;;;0.00;;
19760;SDS011;10039;42.632;23.408;2022-07-19T12:09:34;0.00;;;0.00;;
19760;SDS011;10039;42.632;23.408;2022-07-19T12:12:11;0.00;;;0.00;;
19760;SDS011;10039;42.632;23.408;2022-07-19T12:14:40;0.00;;;0.00;;
19760;SDS011;10039;42.632;23.408;2022-07-19T12:19:40;0.00;;;0.00;;
19760;SDS011;10039;42.632;23.408;2022-07-19T12:22:25;0.00;;;0.00;;
19760;SDS011;10039;42.632;23.408;2022-07-19T12:24:54;0.00;;;0.00;;
19760;SDS011;10039;42.632;23.408;2022-07-19T12:27:20;0.00;;;0.00;;
19760;SDS011;10039;42.632;23.408;2022-07-19T12:29:52;0.00;;;0.00;;
19760;SDS011;10039;42.632;23.408;2022-07-19T12:32:27;0.00;;;0.00;;
19760;SDS011;10039;42.632;23.408;2022-07-19T12:34:56;0.00;;;0.00;;
19760;SDS011;10039;42.632;23.408;2022-07-19T12:39:55;0.00;;;0.00;;
19760;SDS011;10039;42.632;23.408;2022-07-19T12:42:21;0.00;;;0.00;;
19760;SDS011;10039;42.632;23.408;2022-07-19T12:44:47;0.00;;;0.00;;
19760;SDS011;10039;42.632;23.408;2022-07-19T12:47:14;0.00;;;0.00;;
19760;SDS011;10039;42.632;23.408;2022-07-19T12:49:41;0.00;;;0.00;;
19760;SDS011;10039;42.632;23.408;2022-07-19T12:52:07;0.00;;;0.00;;
19760;SDS011;10039;42.632;23.408;2022-07-19T12:54:32;0.00;;;0.00;;
19760;SDS011;10039;42.632;23.408;2022-07-19T12:56:58;0.00;;;0.00;;
19760;SDS011;10039;42.632;23.408;2022-07-19T12:59:24;0.00;;;0.00;;
19760;SDS011;10039;42.632;23.408;2022-07-19T13:02:10;0.00;;;0.00;;
19760;SDS011;10039;42.632;23.408;2022-07-19T13:04:37;0.00;;;0.00;;
19760;SDS011;10039;42.632;23.408;2022-07-19T13:07:05;0.00;;;0.00;;
19760;SDS011;10039;42.632;23.408;2022-07-19T13:09:32;0.00;;;0.00;;
19760;SDS011;10039;42.632;23.408;2022-07-19T13:12:02;0.00;;;0.00;;
19760;SDS011;10039;42.632;23.408;2022-07-19T13:14:30;0.00;;;0.00;;
19760;SDS011;10039;42.632;23.408;2022-07-19T13:16:57;0.00;;;0.00;;
19760;SDS011;10039;42.632;23.408;2022-07-19T13:19:23;0.00;;;0.00;;
19760;SDS011;10039;42.632;23.408;2022-07-19T13:21:49;0.00;;;0.00;;
19760;SDS011;10039;42.632;23.408;2022-07-19T13:24:17;0.00;;;0.00;;
19760;SDS011;10039;42.632;23.408;2022-07-19T13:26:43;0.00;;;0.00;;
19760;SDS011;10039;42.632;23.408;2022-07-19T13:29:09;0.00;;;0.00;;
19760;SDS011;10039;42.632;23.408;2022-07-19T13:31:35;0.00;;;0.00;;
19760;SDS011;10039;42.632;23.408;2022-07-19T13:34:01;0.00;;;0.00;;
19760;SDS011;10039;42.632;23.408;2022-07-19T13:36:27;0.00;;;0.00;;
19760;SDS011;10039;42.632;23.408;2022-07-19T13:38:53;0.00;;;0.00;;
19760;SDS011;10039;42.632;23.408;2022-07-19T13:41:19;0.00;;;0.00;;
19760;SDS011;10039;42.632;23.408;2022-07-19T13:43:45;0.00;;;0.00;;
19760;SDS011;10039;42.632;23.408;2022-07-19T13:46:11;0.00;;;0.00;;
19760;SDS011;10039;42.632;23.408;2022-07-19T13:48:40;0.00;;;0.00;;
19760;SDS011;10039;42.632;23.408;2022-07-19T13:51:06;0.00;;;0.00;;
19760;SDS011;10039;42.632;23.408;2022-07-19T13:53:34;0.00;;;0.00;;
19760;SDS011;10039;42.632;23.408;2022-07-19T13:56:03;0.00;;;0.00;;
19760;SDS011;10039;42.632;23.408;2022-07-19T13:58:29;0.00;;;0.00;;
19760;SDS011;10039;42.632;23.408;2022-07-19T14:00:55;0.00;;;0.00;;
19760;SDS011;10039;42.632;23.408;2022-07-19T14:03:21;0.00;;;0.00;;
19760;SDS011;10039;42.632;23.408;2022-07-19T14:05:47;0.00;;;0.00;;
19760;SDS011;10039;42.632;23.408;2022-07-19T14:08:35;0.00;;;0.00;;
19760;SDS011;10039;42.632;23.408;2022-07-19T14:11:01;0.00;;;0.00;;
19760;SDS011;10039;42.632;23.408;2022-07-19T14:13:27;0.00;;;0.00;;
19760;SDS011;10039;42.632;23.408;2022-07-19T14:15:54;0.00;;;0.00;;
19760;SDS011;10039;42.632;23.408;2022-07-19T14:18:19;0.00;;;0.00;;
19760;SDS011;10039;42.632;23.408;2022-07-19T14:20:45;0.00;;;0.00;;
19760;SDS011;10039;42.632;23.408;2022-07-19T14:23:11;0.00;;;0.00;;
19760;SDS011;10039;42.632;23.408;2022-07-19T14:25:40;0.00;;;0.00;;
19760;SDS011;10039;42.632;23.408;2022-07-19T14:28:06;0.00;;;0.00;;
19760;SDS011;10039;42.632;23.408;2022-07-19T14:30:32;0.00;;;0.00;;
19760;SDS011;10039;42.632;23.408;2022-07-19T14:32:58;0.00;;;0.00;;
19760;SDS011;10039;42.632;23.408;2022-07-19T14:35:25;0.00;;;0.00;;
19760;SDS011;10039;42.632;23.408;2022-07-19T14:37:51;0.00;;;0.00;;
19760;SDS011;10039;42.632;23.408;2022-07-19T14:40:21;0.00;;;0.00;;
19760;SDS011;10039;42.632;23.408;2022-07-19T14:42:47;0.00;;;0.00;;
19760;SDS011;10039;42.632;23.408;2022-07-19T14:45:13;0.00;;;0.00;;
19760;SDS011;10039;42.632;23.408;2022-07-19T14:47:39;0.00;;;0.00;;
19760;SDS011;10039;42.632;23.408;2022-07-19T14:50:06;0.00;;;0.00;;
19760;SDS011;10039;42.632;23.408;2022-07-19T14:52:33;0.00;;;0.00;;
19760;SDS011;10039;42.632;23.408;2022-07-19T14:54:59;0.00;;;0.00;;
19760;SDS011;10039;42.632;23.408;2022-07-19T14:57:25;0.00;;;0.00;;
19760;SDS011;10039;42.632;23.408;2022-07-19T14:59:50;0.10;;;0.00;;